createdAt,value
2019-03-13T00:01:00.177Z,78.80
2019-03-13T00:03:40.039Z,79.80
2019-03-13T00:06:20.090Z,79.60
2019-03-13T00:09:00.076Z,79.60
2019-03-13T00:11:40.497Z,80.30
2019-03-13T00:14:20.587Z,80.70
2019-03-13T00:17:01.551Z,79.60
2019-03-13T00:19:42.783Z,79.40
2019-03-13T00:22:23.025Z,79.50
2019-03-13T00:25:02.957Z,78.80
2019-03-13T00:27:42.956Z,77.10
2019-03-13T00:30:22.906Z,76.70
2019-03-13T00:33:02.908Z,77.20
2019-03-13T00:35:42.686Z,76.70
2019-03-13T00:38:22.535Z,75.80
2019-03-13T00:41:02.514Z,75.10
2019-03-13T00:43:42.334Z,74.00
2019-03-13T00:46:22.767Z,74.30
2019-03-13T00:49:02.716Z,72.30
2019-03-13T00:51:42.584Z,73.00
2019-03-13T00:54:23.307Z,73.00
2019-03-13T00:57:02.980Z,73.00
2019-03-13T00:59:43.029Z,72.50
2019-03-13T01:02:33.085Z,73.60
2019-03-13T01:05:16.834Z,73.70
2019-03-13T01:07:56.617Z,74.50
2019-03-13T01:10:36.900Z,74.80
2019-03-13T01:13:16.980Z,76.30
2019-03-13T01:15:56.921Z,77.00
2019-03-13T01:18:36.724Z,78.30
2019-03-13T01:21:16.760Z,79.40
2019-03-13T01:23:56.436Z,79.20
2019-03-13T01:26:36.273Z,81.00
2019-03-13T01:29:16.460Z,81.30
2019-03-13T01:32:26.001Z,81.60
2019-03-13T01:35:22.134Z,80.40
2019-03-13T01:38:02.258Z,80.60
2019-03-13T01:40:42.268Z,80.50
2019-03-13T01:43:22.301Z,81.20
2019-03-13T01:46:02.104Z,80.30
2019-03-13T01:48:42.309Z,79.00
2019-03-13T01:51:21.949Z,78.70
2019-03-13T01:54:02.003Z,79.00
2019-03-13T01:56:41.711Z,78.10
2019-03-13T01:59:21.637Z,77.90
2019-03-13T02:02:04.940Z,77.50
2019-03-13T02:04:45.006Z,77.50
2019-03-13T02:07:24.788Z,77.80
2019-03-13T02:10:06.117Z,78.00
2019-03-13T02:12:46.083Z,78.40
2019-03-13T02:15:25.857Z,79.50
2019-03-13T02:18:05.886Z,80.90
2019-03-13T02:20:45.981Z,83.10
2019-03-13T02:23:25.825Z,85.00
2019-03-13T02:26:05.617Z,93.20
2019-03-13T02:28:45.516Z,99.90
2019-03-13T02:31:26.206Z,99.90
2019-03-13T02:34:05.973Z,99.90
2019-03-13T02:36:45.750Z,99.90
2019-03-13T02:39:25.677Z,99.90
2019-03-13T02:42:05.617Z,99.90
2019-03-13T02:44:45.395Z,99.90
2019-03-13T02:47:25.246Z,99.90
2019-03-13T02:50:05.709Z,99.90
2019-03-13T02:52:45.863Z,99.90
2019-03-13T02:55:25.657Z,99.90
2019-03-13T02:58:05.656Z,99.90
2019-03-13T03:01:08.193Z,99.90
2019-03-13T03:03:51.491Z,99.90
2019-03-13T03:06:33.664Z,99.90
2019-03-13T03:09:13.477Z,99.90
2019-03-13T03:11:53.360Z,99.90
2019-03-13T03:14:33.551Z,99.90
2019-03-13T03:17:13.419Z,99.90
2019-03-13T03:19:54.550Z,99.90
2019-03-13T03:22:34.344Z,99.90
2019-03-13T03:25:17.113Z,99.90
2019-03-13T03:27:57.140Z,99.90
2019-03-13T03:30:39.613Z,99.90
2019-03-13T03:33:22.581Z,99.90
2019-03-13T03:36:02.609Z,99.90
2019-03-13T03:38:42.752Z,99.90
2019-03-13T03:41:22.703Z,99.90
2019-03-13T03:44:02.504Z,99.90
2019-03-13T03:46:43.351Z,99.90
2019-03-13T03:49:24.406Z,99.90
2019-03-13T03:52:04.392Z,99.90
2019-03-13T03:54:44.058Z,99.90
2019-03-13T03:57:23.994Z,99.90
2019-03-13T04:00:06.192Z,99.90
2019-03-13T04:02:45.989Z,99.90
2019-03-13T04:05:26.030Z,99.90
2019-03-13T04:08:05.728Z,99.90
2019-03-13T04:10:45.468Z,99.90
2019-03-13T04:13:25.465Z,99.90
2019-03-13T04:16:05.212Z,99.90
2019-03-13T04:18:45.644Z,99.90
2019-03-13T04:21:25.681Z,99.90
2019-03-13T04:24:05.731Z,99.90
2019-03-13T04:26:47.155Z,99.90
2019-03-13T04:29:27.064Z,99.90
2019-03-13T04:32:06.889Z,99.90
2019-03-13T04:34:46.903Z,99.90
2019-03-13T04:37:26.553Z,99.90
2019-03-13T04:40:06.816Z,99.90
2019-03-13T04:42:46.523Z,99.90
2019-03-13T04:45:26.217Z,99.90
2019-03-13T04:48:06.099Z,99.90
2019-03-13T04:50:45.960Z,99.90
2019-03-13T04:53:25.653Z,99.90
2019-03-13T04:56:06.451Z,99.90
2019-03-13T04:58:46.384Z,99.90
2019-03-13T05:01:26.786Z,99.90
2019-03-13T05:04:06.811Z,99.90
2019-03-13T05:06:46.782Z,99.90
2019-03-13T05:09:38.741Z,99.90
2019-03-13T05:12:18.567Z,99.90
2019-03-13T05:14:58.343Z,99.90
2019-03-13T05:17:38.998Z,99.90
2019-03-13T05:20:19.054Z,99.90
2019-03-13T05:22:59.179Z,99.90
2019-03-13T05:25:38.987Z,99.90
2019-03-13T05:28:19.188Z,99.90
2019-03-13T05:30:59.118Z,99.90
2019-03-13T05:33:39.433Z,99.90
2019-03-13T05:36:19.265Z,99.90
2019-03-13T05:38:59.687Z,99.90
2019-03-13T05:41:39.695Z,99.90
2019-03-13T05:44:19.922Z,99.90
2019-03-13T05:47:02.530Z,99.90
2019-03-13T05:49:42.551Z,99.90
2019-03-13T05:52:24.105Z,99.90
2019-03-13T05:55:03.875Z,99.90
2019-03-13T05:57:45.161Z,99.90
2019-03-13T06:00:26.334Z,99.90
2019-03-13T06:03:06.455Z,99.90
2019-03-13T06:05:46.334Z,99.90
2019-03-13T06:08:26.204Z,99.90
2019-03-13T06:11:06.336Z,99.90
2019-03-13T06:13:47.478Z,99.90
2019-03-13T06:16:27.820Z,99.90
2019-03-13T06:19:07.670Z,99.90
2019-03-13T06:21:47.687Z,99.90
2019-03-13T06:24:29.223Z,99.90
2019-03-13T06:27:09.126Z,99.90
2019-03-13T06:29:48.817Z,99.90
2019-03-13T06:32:28.841Z,99.90
2019-03-13T06:35:09.440Z,99.90
2019-03-13T06:37:49.826Z,99.90
2019-03-13T06:40:29.941Z,99.90
2019-03-13T06:43:09.769Z,99.90
2019-03-13T06:45:49.715Z,99.90
2019-03-13T06:48:30.002Z,99.90
2019-03-13T06:51:09.974Z,99.90
2019-03-13T06:53:49.795Z,99.90
2019-03-13T06:56:29.567Z,99.90
2019-03-13T06:59:15.161Z,99.90
2019-03-13T07:02:13.737Z,99.90
2019-03-13T07:05:04.660Z,99.90
2019-03-13T07:08:02.004Z,99.90
2019-03-13T07:11:00.989Z,99.90
2019-03-13T07:13:53.128Z,99.90
2019-03-13T07:16:44.413Z,99.90
2019-03-13T07:19:41.073Z,99.90
2019-03-13T07:22:30.446Z,97.00
2019-03-13T07:25:38.640Z,96.80
2019-03-13T07:28:40.636Z,96.30
2019-03-13T07:31:38.901Z,96.70
2019-03-13T07:34:46.607Z,95.50
2019-03-13T07:37:37.072Z,93.50
2019-03-13T07:40:30.066Z,93.90
2019-03-13T07:43:25.186Z,91.10
2019-03-13T07:46:12.873Z,90.00
2019-03-13T07:49:11.151Z,87.30
2019-03-13T07:52:08.592Z,86.40
2019-03-13T07:54:59.894Z,82.60
2019-03-13T07:58:04.707Z,79.20
2019-03-13T08:00:51.494Z,79.20
2019-03-13T08:03:44.453Z,71.20
2019-03-13T08:06:41.683Z,73.40
2019-03-13T08:09:46.089Z,68.40
2019-03-13T08:12:48.694Z,64.00
2019-03-13T08:15:42.182Z,61.90
2019-03-13T08:18:44.724Z,62.50
2019-03-13T08:21:46.283Z,59.80
2019-03-13T08:24:42.681Z,59.80
2019-03-13T08:27:51.726Z,59.20
2019-03-13T08:30:48.946Z,60.00
2019-03-13T08:33:47.762Z,58.50
2019-03-13T08:36:52.412Z,56.90
2019-03-13T08:39:51.260Z,56.10
2019-03-13T08:42:48.703Z,56.20
2019-03-13T08:45:47.862Z,56.00
2019-03-13T08:48:37.919Z,55.70
2019-03-13T08:51:39.421Z,56.10
2019-03-13T08:54:38.856Z,55.20
2019-03-13T08:57:30.019Z,53.40
2019-03-13T09:00:37.155Z,54.30
2019-03-13T09:03:32.426Z,56.70
2019-03-13T09:06:27.971Z,59.20
2019-03-13T09:09:26.216Z,61.10
2019-03-13T09:12:15.175Z,61.40
2019-03-13T09:15:13.886Z,57.30
2019-03-13T09:18:10.633Z,56.50
2019-03-13T09:21:14.161Z,56.80
2019-03-13T09:24:01.778Z,55.10
2019-03-13T09:26:54.713Z,54.30
2019-03-13T09:29:59.344Z,54.80
2019-03-13T09:32:49.952Z,57.10
2019-03-13T09:35:51.827Z,60.00
2019-03-13T09:38:45.584Z,59.70
2019-03-13T09:41:43.436Z,57.50
2019-03-13T09:44:34.241Z,57.00
2019-03-13T09:47:20.543Z,58.80
2019-03-13T09:50:14.275Z,60.40
2019-03-13T09:53:16.145Z,61.10
2019-03-13T09:56:16.463Z,62.10
2019-03-13T09:59:06.759Z,61.60
2019-03-13T10:02:04.880Z,63.70
2019-03-13T10:05:10.075Z,62.30
2019-03-13T10:07:58.989Z,64.10
2019-03-13T10:10:56.648Z,63.80
2019-03-13T10:14:02.042Z,64.00
2019-03-13T10:17:10.747Z,65.10
2019-03-13T10:20:05.466Z,65.30
2019-03-13T10:23:02.362Z,63.50
2019-03-13T10:26:01.647Z,65.80
2019-03-13T10:28:52.495Z,64.20
2019-03-13T10:31:46.533Z,59.40
2019-03-13T10:34:35.091Z,55.50
2019-03-13T10:37:37.476Z,52.90
2019-03-13T10:40:42.403Z,52.30
2019-03-13T10:43:32.405Z,53.30
2019-03-13T10:46:46.901Z,53.20
2019-03-13T10:49:31.968Z,53.70
2019-03-13T10:52:20.644Z,55.50
2019-03-13T10:55:09.580Z,55.20
2019-03-13T10:58:08.112Z,55.30
2019-03-13T11:00:57.620Z,54.30
2019-03-13T11:03:59.382Z,52.60
2019-03-13T11:06:57.849Z,53.60
2019-03-13T11:09:53.016Z,54.10
2019-03-13T11:12:54.401Z,56.00
2019-03-13T11:15:51.737Z,59.80
2019-03-13T11:18:50.323Z,60.40
2019-03-13T11:21:48.849Z,59.60
2019-03-13T11:24:50.814Z,61.00
2019-03-13T11:27:45.543Z,61.10
2019-03-13T11:30:43.280Z,62.10
2019-03-13T11:33:30.449Z,64.40
2019-03-13T11:36:19.650Z,64.60
2019-03-13T11:39:15.897Z,67.20
2019-03-13T11:42:23.952Z,67.70
2019-03-13T11:45:41.069Z,66.60
2019-03-13T11:48:42.858Z,67.20
2019-03-13T11:51:41.669Z,67.50
2019-03-13T11:54:40.406Z,65.90
2019-03-13T11:57:42.701Z,60.40
2019-03-13T12:00:47.413Z,56.80
2019-03-13T12:03:38.623Z,56.60
2019-03-13T12:06:44.396Z,54.40
2019-03-13T12:09:29.975Z,54.50
2019-03-13T12:12:40.717Z,58.10
2019-03-13T12:15:29.655Z,59.70
2019-03-13T12:18:28.373Z,63.20
2019-03-13T12:21:26.708Z,63.60
2019-03-13T12:24:23.916Z,66.10
2019-03-13T12:27:40.139Z,67.80
2019-03-13T12:30:34.615Z,68.50
2019-03-13T12:33:45.570Z,68.90
2019-03-13T12:36:47.147Z,69.40
2019-03-13T12:39:49.079Z,70.70
2019-03-13T12:42:38.684Z,68.60
2019-03-13T12:45:26.676Z,64.20
2019-03-13T12:48:17.284Z,58.50
2019-03-13T12:51:11.202Z,53.70
2019-03-13T12:54:01.005Z,50.90
2019-03-13T12:56:49.873Z,53.60
2019-03-13T12:59:39.351Z,52.70
2019-03-13T13:02:27.576Z,51.70
2019-03-13T13:05:14.782Z,49.70
2019-03-13T13:08:12.243Z,48.60
2019-03-13T13:11:02.951Z,48.40
2019-03-13T13:14:05.837Z,50.00
2019-03-13T13:17:10.856Z,49.80
2019-03-13T13:19:50.590Z,47.10
2019-03-13T13:22:32.498Z,46.00
2019-03-13T13:25:18.664Z,46.30
2019-03-13T13:27:58.255Z,44.20
2019-03-13T13:30:39.417Z,44.50
2019-03-13T13:33:19.005Z,41.80
2019-03-13T13:36:01.823Z,43.90
2019-03-13T13:38:43.477Z,43.10
2019-03-13T13:41:23.340Z,39.90
2019-03-13T13:44:02.860Z,40.10
2019-03-13T13:46:44.546Z,39.40
2019-03-13T13:49:24.381Z,42.00
2019-03-13T13:52:04.131Z,45.30
2019-03-13T13:54:44.771Z,47.50
2019-03-13T13:57:24.413Z,47.80
2019-03-13T14:00:04.271Z,49.20
2019-03-13T14:02:45.680Z,51.20
2019-03-13T14:05:30.961Z,51.90
2019-03-13T14:08:10.551Z,49.30
2019-03-13T14:10:50.339Z,50.60
2019-03-13T14:13:29.976Z,49.40
2019-03-13T14:16:09.646Z,46.70
2019-03-13T14:18:49.576Z,45.20
2019-03-13T14:21:29.269Z,45.90
2019-03-13T14:24:08.799Z,48.10
2019-03-13T14:26:49.458Z,50.10
2019-03-13T14:29:29.090Z,52.00
2019-03-13T14:32:08.856Z,52.80
2019-03-13T14:34:48.675Z,52.60
2019-03-13T14:37:28.298Z,52.20
2019-03-13T14:40:09.604Z,52.30
2019-03-13T14:42:50.466Z,53.40
2019-03-13T14:45:30.168Z,54.50
2019-03-13T14:48:09.952Z,55.80
2019-03-13T14:50:49.853Z,56.40
2019-03-13T14:53:29.385Z,57.70
2019-03-13T14:56:08.984Z,57.80
2019-03-13T14:58:48.903Z,57.90
2019-03-13T15:01:28.797Z,59.30
2019-03-13T15:04:08.626Z,59.80
2019-03-13T15:06:49.551Z,59.70
2019-03-13T15:09:29.430Z,60.80
2019-03-13T15:12:09.196Z,60.90
2019-03-13T15:14:49.246Z,61.20
2019-03-13T15:17:29.317Z,62.00
2019-03-13T15:20:13.663Z,61.40
2019-03-13T15:22:54.002Z,62.10
2019-03-13T15:25:34.208Z,62.50
2019-03-13T15:28:17.348Z,62.00
2019-03-13T15:30:56.051Z,61.50
2019-03-13T15:33:35.931Z,62.60
2019-03-13T15:36:16.204Z,62.50
2019-03-13T15:38:55.937Z,61.90
2019-03-13T15:41:35.878Z,62.40
2019-03-13T15:44:15.945Z,62.90
2019-03-13T15:46:56.520Z,64.10
2019-03-13T15:49:36.473Z,64.20
2019-03-13T15:52:16.452Z,64.40
2019-03-13T15:54:56.438Z,64.50
2019-03-13T15:57:40.012Z,65.30
2019-03-13T16:00:23.873Z,65.30
2019-03-13T16:03:03.639Z,64.90
2019-03-13T16:05:46.310Z,65.40
2019-03-13T16:08:26.372Z,67.30
2019-03-13T16:11:09.458Z,66.30
2019-03-13T16:13:49.605Z,66.40
2019-03-13T16:16:29.577Z,66.10
2019-03-13T16:19:13.111Z,67.40
2019-03-13T16:21:53.529Z,67.20
2019-03-13T16:24:33.424Z,67.60
2019-03-13T16:27:14.507Z,68.10
2019-03-13T16:29:58.846Z,68.60
2019-03-13T16:32:43.757Z,69.90
2019-03-13T16:35:26.319Z,70.20
2019-03-13T16:38:05.366Z,69.20
2019-03-13T16:40:45.358Z,69.40
2019-03-13T16:43:26.570Z,70.20
2019-03-13T16:46:07.899Z,72.30
2019-03-13T16:48:47.614Z,70.80
2019-03-13T16:51:27.654Z,71.30
2019-03-13T16:54:08.319Z,72.20
2019-03-13T16:56:48.359Z,72.30
2019-03-13T16:59:30.742Z,72.40
2019-03-13T17:02:12.980Z,72.30
2019-03-13T17:04:53.109Z,72.00
2019-03-13T17:07:32.835Z,71.00
2019-03-13T17:10:15.172Z,73.10
2019-03-13T17:12:55.108Z,73.90
2019-03-13T17:15:35.278Z,73.00
2019-03-13T17:18:15.854Z,74.40
2019-03-13T17:20:56.206Z,74.40
2019-03-13T17:23:36.291Z,73.50
2019-03-13T17:26:16.311Z,74.50
2019-03-13T17:28:56.034Z,74.40
2019-03-13T17:31:38.935Z,74.00
2019-03-13T17:34:19.154Z,75.00
2019-03-13T17:36:58.836Z,74.90
2019-03-13T17:39:38.758Z,74.90
2019-03-13T17:42:18.756Z,75.60
2019-03-13T17:45:00.781Z,76.40
2019-03-13T17:47:42.062Z,75.80
2019-03-13T17:50:22.773Z,75.80
2019-03-13T17:53:03.603Z,76.20
2019-03-13T17:55:43.638Z,76.60
2019-03-13T17:58:24.000Z,76.60
2019-03-13T18:01:04.465Z,77.10
2019-03-13T18:03:44.132Z,77.50
2019-03-13T18:06:24.416Z,78.60
2019-03-13T18:09:04.824Z,78.60
2019-03-13T18:11:46.412Z,78.60
2019-03-13T18:14:32.064Z,79.30
2019-03-13T18:17:10.472Z,79.80
2019-03-13T18:19:50.364Z,80.60
2019-03-13T18:22:31.162Z,81.10
2019-03-13T18:25:17.868Z,81.50
2019-03-13T18:27:56.723Z,81.90
2019-03-13T18:30:36.851Z,82.80
2019-03-13T18:33:18.483Z,83.70
2019-03-13T18:35:58.518Z,84.40
2019-03-13T18:38:38.717Z,85.70
2019-03-13T18:41:18.481Z,86.00
2019-03-13T18:43:58.680Z,87.00
2019-03-13T18:46:38.587Z,88.40
2019-03-13T18:49:18.426Z,89.60
2019-03-13T18:51:58.222Z,90.20
2019-03-13T18:54:38.013Z,90.60
2019-03-13T18:57:18.009Z,90.70
2019-03-13T18:59:57.911Z,90.90
2019-03-13T19:02:37.601Z,90.80
2019-03-13T19:05:18.527Z,91.50
2019-03-13T19:08:00.599Z,92.00
2019-03-13T19:10:40.823Z,92.10
2019-03-13T19:13:20.579Z,92.50
2019-03-13T19:16:01.786Z,93.00
2019-03-13T19:18:41.626Z,93.50
2019-03-13T19:21:21.816Z,93.60
2019-03-13T19:24:02.706Z,94.10
2019-03-13T19:26:43.252Z,94.30
2019-03-13T19:29:23.307Z,94.80
2019-03-13T19:32:03.648Z,95.40
2019-03-13T19:34:43.594Z,95.70
2019-03-13T19:37:27.908Z,96.20
2019-03-13T19:40:11.116Z,96.40
2019-03-13T19:42:50.871Z,97.00
2019-03-13T19:45:37.801Z,97.40
2019-03-13T19:48:17.544Z,97.80
2019-03-13T19:51:00.800Z,99.00
2019-03-13T19:53:42.026Z,99.60
2019-03-13T19:56:22.076Z,99.90
2019-03-13T19:59:04.046Z,99.90
2019-03-13T20:01:43.884Z,99.90
2019-03-13T20:04:23.656Z,99.90
2019-03-13T20:07:03.489Z,99.90
2019-03-13T20:09:43.620Z,99.90
2019-03-13T20:12:23.958Z,99.90
2019-03-13T20:15:04.224Z,99.90
2019-03-13T20:17:44.045Z,99.90
2019-03-13T20:20:24.034Z,99.90
2019-03-13T20:23:04.086Z,99.90
2019-03-13T20:25:44.013Z,99.90
2019-03-13T20:28:26.360Z,99.90
2019-03-13T20:31:06.761Z,99.90
2019-03-13T20:33:46.876Z,99.90
2019-03-13T20:36:26.689Z,99.90
2019-03-13T20:39:08.068Z,99.90
2019-03-13T20:41:54.274Z,99.90
2019-03-13T20:44:34.794Z,99.90
2019-03-13T20:47:14.706Z,99.90
2019-03-13T20:49:54.703Z,99.90
2019-03-13T20:52:34.754Z,99.90
2019-03-13T20:55:14.867Z,99.90
2019-03-13T20:57:54.815Z,99.90
2019-03-13T21:00:35.171Z,99.90
2019-03-13T21:03:15.373Z,99.90
2019-03-13T21:05:55.221Z,99.90
2019-03-13T21:08:35.259Z,99.90
2019-03-13T21:11:16.055Z,99.90
2019-03-13T21:13:56.283Z,99.90
2019-03-13T21:16:37.347Z,99.90
2019-03-13T21:19:17.335Z,99.90
2019-03-13T21:21:57.454Z,99.90
2019-03-13T21:24:37.313Z,99.90
2019-03-13T21:27:17.561Z,99.90
2019-03-13T21:29:58.136Z,99.90
2019-03-13T21:32:38.174Z,99.90
2019-03-13T21:35:18.247Z,99.90
2019-03-13T21:38:01.718Z,99.90
2019-03-13T21:40:42.011Z,99.90
2019-03-13T21:43:21.858Z,99.90
2019-03-13T21:46:02.657Z,99.90
2019-03-13T21:48:45.738Z,99.90
2019-03-13T21:51:25.752Z,99.90
2019-03-13T21:54:05.740Z,99.90
2019-03-13T21:57:06.080Z,99.90
2019-03-13T21:59:46.302Z,99.90
2019-03-13T22:02:32.574Z,99.90
2019-03-13T22:05:08.046Z,99.90
2019-03-13T22:07:48.158Z,99.90
2019-03-13T22:10:28.382Z,99.90
2019-03-13T22:13:08.188Z,99.90
2019-03-13T22:15:48.773Z,99.90
2019-03-13T22:18:28.981Z,99.90
2019-03-13T22:21:10.266Z,99.90
2019-03-13T22:23:51.892Z,99.90
2019-03-13T22:26:31.598Z,99.90
2019-03-13T22:29:11.623Z,99.90
2019-03-13T22:31:52.002Z,99.90
2019-03-13T22:34:33.235Z,99.90
2019-03-13T22:37:13.586Z,99.90
2019-03-13T22:39:53.452Z,99.90
2019-03-13T22:42:33.389Z,99.90
2019-03-13T22:45:14.230Z,99.90
2019-03-13T22:47:55.330Z,99.90
2019-03-13T22:50:35.305Z,99.90
2019-03-13T22:53:15.276Z,99.90
2019-03-13T22:55:55.591Z,99.90
2019-03-13T22:58:36.192Z,99.90
2019-03-13T23:01:17.995Z,99.90
2019-03-13T23:03:59.866Z,99.90
2019-03-13T23:06:39.814Z,99.90
2019-03-13T23:09:21.700Z,99.90
2019-03-13T23:12:05.203Z,99.90
2019-03-13T23:14:45.734Z,99.90
2019-03-13T23:17:25.558Z,99.90
2019-03-13T23:20:05.603Z,99.90
2019-03-13T23:22:46.837Z,99.90
2019-03-13T23:25:26.912Z,99.90
2019-03-13T23:28:07.063Z,99.90
2019-03-13T23:30:47.011Z,99.90
2019-03-13T23:33:29.163Z,99.90
2019-03-13T23:36:09.253Z,99.90
2019-03-13T23:38:49.141Z,99.90
2019-03-13T23:41:31.002Z,99.90
2019-03-13T23:44:11.116Z,99.90
2019-03-13T23:46:51.126Z,99.90
2019-03-13T23:49:31.253Z,99.90
2019-03-13T23:52:11.199Z,99.90
2019-03-13T23:54:54.891Z,99.90
2019-03-13T23:57:35.222Z,99.90
